Upstream stations:
Downstream station:
SHEF ID: OEMO2 Okemah Hwy 56
STATION TYPE:
PRECIP STAGE RIV-FLOW VOLTAGE BAT-LOAD
in ft cfs volt volt
Ccp-Rev Ccp-Rev Ccp-Rev Ccp-Rev Ccp-Rev
(US/Central)
09/29 00:00 0.00 8.98 342 12.57 12.49
09/29 01:00 0.00 8.99 345 12.57 12.41
09/29 02:00 0.00 8.99 345 12.57 12.41
09/29 03:00 0.00 9.00 347 12.57 12.41
09/29 04:00 0.00 9.00 347 12.57 12.41
09/29 05:00 0.00 9.00 347 12.57 12.41
09/29 06:00 0.00 9.00 347 12.57 12.41
09/29 07:00 0.00 9.00 347 12.57 12.41
09/29 08:00 0.00 9.00 347 12.57 12.41
09/29 09:00 0.00 8.99 345 12.49 12.41
09/29 10:00 0.00 8.98 342 12.57 12.41
09/29 11:00 0.00 8.96 337 12.57 12.41
09/29 12:00 0.00 8.96 337 12.57 12.41
09/29 13:00 0.00 8.97 339 12.57 12.41
09/29 14:00 0.00 8.97 339 12.57 12.41
09/29 15:00 0.00 8.96 337 12.57 12.41
09/29 16:00 0.00 8.94 331 12.57 12.41
09/29 17:00 0.00 8.95 334 12.57 12.49
09/29 18:00 0.00 8.91 323 12.57 12.41
09/29 19:00 0.00 8.95 334 12.57 12.49
09/29 20:00 0.00 8.94 331 12.57 12.49
09/29 21:00 0.00 8.94 331 12.57 12.49
09/29 22:00 0.00 8.94 331 12.57 12.41
09/29 23:00 ---- ---- ---- ---- ----